createdAt,value
2022-09-15T00:01:15.815Z,99236.25
2022-09-15T00:03:43.783Z,99228.47
2022-09-15T00:06:12.414Z,99240.13
2022-09-15T00:08:40.515Z,99230.31
2022-09-15T00:11:24.407Z,99224.94
2022-09-15T00:13:53.646Z,99227.34
2022-09-15T00:16:24.321Z,99223.22
2022-09-15T00:18:52.211Z,99213.47
2022-09-15T00:21:23.793Z,99216.81
2022-09-15T00:23:52.191Z,99216.50
2022-09-15T00:26:24.002Z,99212.59
2022-09-15T00:28:52.386Z,99207.72
2022-09-15T00:31:23.565Z,99209.38
2022-09-15T00:33:56.188Z,99203.22
2022-09-15T00:36:25.671Z,99210.38
2022-09-15T00:38:53.638Z,99210.69
2022-09-15T00:41:23.246Z,99209.78
2022-09-15T00:43:59.285Z,99201.16
2022-09-15T00:46:29.341Z,99200.13
2022-09-15T00:49:12.658Z,99199.91
2022-09-15T00:51:58.960Z,99210.13
2022-09-15T00:54:40.063Z,99209.72
2022-09-15T00:57:30.379Z,99206.97
2022-09-15T01:00:00.456Z,99205.13
2022-09-15T01:02:34.567Z,99196.13
2022-09-15T01:05:07.445Z,99192.41
2022-09-15T01:07:46.335Z,99191.75
2022-09-15T01:10:37.043Z,99190.84
2022-09-15T01:13:13.688Z,99200.81
2022-09-15T01:16:20.979Z,99196.69
2022-09-15T01:19:16.082Z,99202.16
2022-09-15T01:22:03.450Z,99195.72
2022-09-15T01:25:01.141Z,99204.63
2022-09-15T01:28:30.144Z,99199.53
2022-09-15T01:31:15.809Z,99200.47
2022-09-15T01:34:03.501Z,99202.13
2022-09-15T01:37:05.223Z,99216.91
2022-09-15T01:39:39.594Z,99212.53
2022-09-15T01:42:11.930Z,99206.09
2022-09-15T01:44:45.617Z,99208.53
2022-09-15T01:47:17.093Z,99214.00
2022-09-15T01:49:54.131Z,99207.78
2022-09-15T01:52:24.352Z,99217.47
2022-09-15T01:54:59.353Z,99201.59
2022-09-15T01:57:28.648Z,99207.44
2022-09-15T01:59:57.230Z,99213.44
2022-09-15T02:02:37.824Z,99205.63
2022-09-15T02:05:25.831Z,99205.50
2022-09-15T02:08:13.742Z,99202.97
2022-09-15T02:11:00.799Z,99208.97
2022-09-15T02:13:55.399Z,99199.28
2022-09-15T02:16:26.929Z,99197.72
2022-09-15T02:19:09.730Z,99197.72
2022-09-15T02:21:54.918Z,99210.13
2022-09-15T02:24:35.573Z,99215.78
2022-09-15T02:27:09.343Z,99207.56
2022-09-15T02:29:37.855Z,99202.19
2022-09-15T02:32:07.741Z,99195.44
2022-09-15T02:34:45.068Z,99200.06
2022-09-15T02:37:13.751Z,99205.13
2022-09-15T02:39:49.203Z,99207.50
2022-09-15T02:42:29.657Z,99200.34
2022-09-15T02:44:58.065Z,99204.78
2022-09-15T02:47:27.932Z,99204.31
2022-09-15T02:49:57.162Z,99208.03
2022-09-15T02:52:24.827Z,99204.97
2022-09-15T02:54:52.296Z,99213.16
2022-09-15T02:57:19.874Z,99207.09
2022-09-15T03:00:06.683Z,99211.97
2022-09-15T03:02:34.593Z,99212.91
2022-09-15T03:05:02.072Z,99204.31
2022-09-15T03:07:30.158Z,99201.88
2022-09-15T03:09:58.376Z,99204.03
2022-09-15T03:12:26.886Z,99202.97
2022-09-15T03:14:54.369Z,99207.63
2022-09-15T03:17:21.824Z,99217.41
2022-09-15T03:19:50.793Z,99225.75
2022-09-15T03:22:18.714Z,99220.03
2022-09-15T03:24:46.580Z,99213.22
2022-09-15T03:27:14.568Z,99216.25
2022-09-15T03:29:42.055Z,99220.75
2022-09-15T03:32:09.585Z,99216.38
2022-09-15T03:34:37.180Z,99214.16
2022-09-15T03:37:05.606Z,99214.72
2022-09-15T03:39:33.246Z,99214.91
2022-09-15T03:42:00.878Z,99226.28
2022-09-15T03:44:28.840Z,99220.72
2022-09-15T03:46:58.112Z,99224.84
2022-09-15T03:49:26.389Z,99221.34
2022-09-15T03:51:53.877Z,99215.16
2022-09-15T03:54:21.384Z,99220.09
2022-09-15T03:56:49.178Z,99217.31
2022-09-15T03:59:19.077Z,99226.69
2022-09-15T04:01:50.948Z,99222.88
2022-09-15T04:04:18.667Z,99224.41
2022-09-15T04:06:46.416Z,99220.94
2022-09-15T04:09:15.338Z,99222.25
2022-09-15T04:11:42.907Z,99226.25
2022-09-15T04:14:10.528Z,99231.38
2022-09-15T04:16:37.977Z,99236.38
2022-09-15T04:19:05.595Z,99241.47
2022-09-15T04:21:33.084Z,99233.53
2022-09-15T04:24:00.957Z,99228.63
2022-09-15T04:26:37.130Z,99224.56
2022-09-15T04:29:14.282Z,99228.03
2022-09-15T04:31:42.277Z,99222.47
2022-09-15T04:34:10.211Z,99234.34
2022-09-15T04:36:42.993Z,99229.81
2022-09-15T04:39:10.511Z,99232.22
2022-09-15T04:41:40.942Z,99228.97
2022-09-15T04:44:08.654Z,99234.97
2022-09-15T04:46:36.291Z,99234.41
2022-09-15T04:49:03.942Z,99239.84
2022-09-15T04:51:32.082Z,99243.78
2022-09-15T04:53:59.536Z,99249.66
2022-09-15T04:56:27.749Z,99248.31
2022-09-15T04:59:03.537Z,99249.31
2022-09-15T05:01:36.153Z,99251.72
2022-09-15T05:04:04.817Z,99252.59
2022-09-15T05:06:34.889Z,99257.94
2022-09-15T05:09:09.245Z,99251.31
2022-09-15T05:11:40.852Z,99249.34
2022-09-15T05:14:09.635Z,99243.63
2022-09-15T05:16:37.403Z,99243.63
2022-09-15T05:19:05.105Z,99241.84
2022-09-15T05:21:33.365Z,99243.69
2022-09-15T05:24:00.939Z,99247.88
2022-09-15T05:26:30.179Z,99239.22
2022-09-15T05:28:58.158Z,99244.53
2022-09-15T05:31:32.063Z,99247.03
2022-09-15T05:34:03.019Z,99260.88
2022-09-15T05:36:31.496Z,99252.38
2022-09-15T05:38:59.117Z,99251.22
2022-09-15T05:41:29.977Z,99257.38
2022-09-15T05:43:59.223Z,99249.91
2022-09-15T05:46:27.683Z,99257.56
2022-09-15T05:48:57.636Z,99252.16
2022-09-15T05:51:25.995Z,99257.50
2022-09-15T05:53:53.443Z,99256.34
2022-09-15T05:56:21.018Z,99250.28
2022-09-15T05:58:49.942Z,99254.69
2022-09-15T06:01:24.332Z,99260.38
2022-09-15T06:03:56.431Z,99257.81
2022-09-15T06:06:25.841Z,99265.81
2022-09-15T06:08:58.666Z,99259.75
2022-09-15T06:11:30.371Z,99260.50
2022-09-15T06:14:01.225Z,99256.78
2022-09-15T06:16:32.775Z,99252.22
2022-09-15T06:19:01.397Z,99246.53
2022-09-15T06:21:32.629Z,99246.56
2022-09-15T06:24:07.121Z,99247.31
2022-09-15T06:26:35.686Z,99248.44
2022-09-15T06:29:05.361Z,99245.03
2022-09-15T06:31:34.191Z,99236.63
2022-09-15T06:34:03.855Z,99236.56
2022-09-15T06:36:32.865Z,99235.78
2022-09-15T06:39:00.338Z,99232.31
2022-09-15T06:41:47.415Z,99233.75
2022-09-15T06:44:20.138Z,99230.97
2022-09-15T06:46:48.391Z,99229.34
2022-09-15T06:49:16.201Z,99235.72
2022-09-15T06:51:46.568Z,99234.44
2022-09-15T06:54:16.233Z,99225.44
2022-09-15T06:56:44.209Z,99225.28
2022-09-15T06:59:13.735Z,99225.53
2022-09-15T07:01:42.304Z,99232.59
2022-09-15T07:04:10.460Z,99229.44
2022-09-15T07:06:40.389Z,99230.16
2022-09-15T07:09:07.995Z,99229.34
2022-09-15T07:11:35.725Z,99223.50
2022-09-15T07:14:03.425Z,99234.22
2022-09-15T07:16:31.208Z,99226.94
2022-09-15T07:19:01.863Z,99232.16
2022-09-15T07:21:29.545Z,99224.88
2022-09-15T07:23:59.375Z,99224.75
2022-09-15T07:26:30.590Z,99202.28
2022-09-15T07:29:05.044Z,99201.66
2022-09-15T07:31:34.952Z,99207.47
2022-09-15T07:34:03.345Z,99210.44
2022-09-15T07:36:32.075Z,99221.34
2022-09-15T07:38:59.582Z,99233.97
2022-09-15T07:41:31.715Z,99242.16
2022-09-15T07:44:01.317Z,99250.41
2022-09-15T07:46:33.008Z,99240.44
2022-09-15T07:49:03.117Z,99238.59
2022-09-15T07:51:30.881Z,99243.84
2022-09-15T07:53:58.522Z,99234.94
2022-09-15T07:56:27.256Z,99233.84
2022-09-15T07:58:54.833Z,99235.50
2022-09-15T08:01:22.645Z,99227.66
2022-09-15T08:03:52.615Z,99228.19
2022-09-15T08:06:24.131Z,99223.63
2022-09-15T08:08:56.277Z,99222.97
2022-09-15T08:11:30.331Z,99222.38
2022-09-15T08:14:03.197Z,99223.56
2022-09-15T08:16:30.807Z,99217.81
2022-09-15T08:18:59.499Z,99223.22
2022-09-15T08:21:30.319Z,99226.59
2022-09-15T08:24:00.039Z,99230.16
2022-09-15T08:26:29.448Z,99229.38
2022-09-15T08:28:58.014Z,99219.25
2022-09-15T08:31:25.762Z,99220.41
2022-09-15T08:33:55.915Z,99220.03
2022-09-15T08:36:27.628Z,99220.34
2022-09-15T08:38:55.747Z,99220.13
2022-09-15T08:41:28.208Z,99223.31
2022-09-15T08:44:24.707Z,99222.09
2022-09-15T08:47:10.144Z,99216.03
2022-09-15T08:50:20.594Z,99232.00
2022-09-15T08:53:15.372Z,99228.22
2022-09-15T08:56:01.551Z,99228.53
2022-09-15T08:58:38.651Z,99215.56
2022-09-15T09:01:53.393Z,99213.75
2022-09-15T09:04:39.404Z,99203.75
2022-09-15T09:07:28.049Z,99194.91
2022-09-15T09:10:48.742Z,99195.63
2022-09-15T09:13:42.960Z,99182.63
2022-09-15T09:16:44.162Z,99181.88
2022-09-15T09:19:32.929Z,99182.13
2022-09-15T09:22:15.976Z,99177.50
2022-09-15T09:24:52.725Z,99167.75
2022-09-15T09:27:34.323Z,99165.75
2022-09-15T09:30:17.859Z,99173.91
2022-09-15T09:32:54.216Z,99167.69
2022-09-15T09:35:45.843Z,99171.16
2022-09-15T09:38:32.187Z,99168.75
2022-09-15T09:41:02.537Z,99157.91
2022-09-15T09:43:32.299Z,99155.06
2022-09-15T09:46:03.498Z,99142.97
2022-09-15T09:48:31.878Z,99151.16
2022-09-15T09:50:59.422Z,99149.94
2022-09-15T09:53:28.799Z,99152.34
2022-09-15T09:56:27.847Z,99153.19
2022-09-15T09:59:36.844Z,99155.88
2022-09-15T10:02:14.204Z,99149.41
2022-09-15T10:04:50.423Z,99141.59
2022-09-15T10:07:25.365Z,99149.63
2022-09-15T10:10:02.883Z,99134.34
2022-09-15T10:12:41.903Z,99135.06
2022-09-15T10:15:25.312Z,99136.28
2022-09-15T10:17:55.377Z,99131.31
2022-09-15T10:20:36.026Z,99136.59
2022-09-15T10:23:18.552Z,99126.03
2022-09-15T10:25:59.051Z,99122.03
2022-09-15T10:28:28.719Z,99113.16
2022-09-15T10:31:08.060Z,99113.06
2022-09-15T10:33:38.333Z,99109.97
2022-09-15T10:36:30.075Z,99094.47
2022-09-15T10:39:15.518Z,99090.34
2022-09-15T10:42:29.857Z,99085.38
2022-09-15T10:45:42.123Z,99080.50
2022-09-15T10:48:36.503Z,99086.34
2022-09-15T10:51:11.628Z,99084.31
2022-09-15T10:54:00.258Z,99086.09
2022-09-15T10:56:49.614Z,99079.72
2022-09-15T10:59:49.350Z,99075.06
2022-09-15T11:02:48.816Z,99071.81
2022-09-15T11:05:32.045Z,99070.28
2022-09-15T11:08:19.231Z,99067.06
2022-09-15T11:11:14.019Z,99064.25
2022-09-15T11:13:50.960Z,99062.34
2022-09-15T11:16:44.127Z,99060.72
2022-09-15T11:19:25.274Z,99049.94
2022-09-15T11:22:18.549Z,99047.94
2022-09-15T11:25:20.630Z,99039.44
2022-09-15T11:28:20.376Z,99042.13
2022-09-15T11:31:04.256Z,99049.94
2022-09-15T11:34:09.610Z,99034.69
2022-09-15T11:36:43.507Z,99043.09
2022-09-15T11:39:26.466Z,99030.78
2022-09-15T11:42:25.249Z,99023.38
2022-09-15T11:44:52.733Z,99019.22
2022-09-15T11:47:42.505Z,99023.03
2022-09-15T11:50:23.183Z,99021.31
2022-09-15T11:53:16.788Z,99019.47
2022-09-15T11:56:06.195Z,99018.88
2022-09-15T11:59:13.121Z,99012.00
2022-09-15T12:02:18.986Z,99008.47
2022-09-15T12:05:15.047Z,98992.63
2022-09-15T12:08:35.289Z,98982.38
2022-09-15T12:11:19.829Z,98979.97
2022-09-15T12:14:14.275Z,98975.28
2022-09-15T12:16:42.602Z,98965.75
2022-09-15T12:20:00.386Z,98969.53
2022-09-15T12:23:05.597Z,98970.50
2022-09-15T12:26:18.595Z,98975.00
2022-09-15T12:29:04.975Z,98966.81
2022-09-15T12:31:38.875Z,98963.56
2022-09-15T12:34:33.383Z,98958.25
2022-09-15T12:37:15.419Z,98956.53
2022-09-15T12:39:49.850Z,98962.34
2022-09-15T12:42:37.449Z,98950.88
2022-09-15T12:45:25.313Z,98952.59
2022-09-15T12:48:20.744Z,98942.13
2022-09-15T12:51:00.422Z,98930.63
2022-09-15T12:56:10.506Z,98932.56
2022-09-15T12:58:39.338Z,98931.03
2022-09-15T13:01:32.674Z,98924.28
2022-09-15T13:04:02.904Z,98931.91
2022-09-15T13:06:34.993Z,98924.72
2022-09-15T13:09:02.379Z,98925.28
2022-09-15T13:11:41.090Z,98931.63
2022-09-15T13:14:21.803Z,98919.84
2022-09-15T13:17:01.440Z,98918.06
2022-09-15T13:19:41.403Z,98913.75
2022-09-15T13:22:11.758Z,98915.56
2022-09-15T13:25:11.266Z,98920.09
2022-09-15T13:27:54.124Z,98914.91
2022-09-15T13:30:21.613Z,98898.91
2022-09-15T13:33:23.131Z,98907.38
2022-09-15T13:40:08.614Z,98897.94
2022-09-15T13:43:24.125Z,98893.88
2022-09-15T13:46:19.570Z,98889.66
2022-09-15T13:49:24.330Z,98887.00
2022-09-15T13:52:22.513Z,98884.47
2022-09-15T13:55:27.800Z,98880.72
2022-09-15T14:00:55.269Z,98876.69
2022-09-15T14:03:33.878Z,98874.75
2022-09-15T14:06:01.560Z,98873.13
2022-09-15T14:08:33.267Z,98868.91
2022-09-15T14:11:08.371Z,98871.25
2022-09-15T14:13:41.196Z,98865.75
2022-09-15T14:16:35.733Z,98862.03
2022-09-15T14:19:33.793Z,98859.84
2022-09-15T14:22:21.961Z,98858.34
2022-09-15T14:25:17.052Z,98858.50
2022-09-15T14:27:49.838Z,98864.47
2022-09-15T14:30:32.036Z,98865.34
2022-09-15T14:33:02.127Z,98862.78
2022-09-15T14:35:38.850Z,98864.44
2022-09-15T14:38:06.415Z,98859.84
2022-09-15T14:40:41.755Z,98858.75
2022-09-15T14:43:35.517Z,98859.34
2022-09-15T14:46:14.770Z,98856.28
2022-09-15T14:48:42.233Z,98851.00
2022-09-15T14:51:19.154Z,98854.78
2022-09-15T14:53:51.134Z,98848.47
2022-09-15T14:56:28.755Z,98848.59
2022-09-15T14:59:07.058Z,98839.78
2022-09-15T15:02:02.962Z,98843.53
2022-09-15T15:04:45.882Z,98836.63
2022-09-15T15:07:39.950Z,98840.22
2022-09-15T15:10:23.262Z,98839.84
2022-09-15T15:13:15.462Z,98838.84
2022-09-15T15:15:43.701Z,98833.34
2022-09-15T15:18:39.015Z,98835.69
2022-09-15T15:21:40.099Z,98825.41
2022-09-15T15:24:13.132Z,98832.47
2022-09-15T15:26:43.756Z,98826.28
2022-09-15T15:29:40.709Z,98830.00
2022-09-15T15:32:28.076Z,98814.44
2022-09-15T15:35:00.982Z,98819.13
2022-09-15T15:37:33.925Z,98824.38
2022-09-15T15:40:05.855Z,98817.13
2022-09-15T15:42:33.468Z,98817.72
2022-09-15T15:45:09.500Z,98805.50
2022-09-15T15:47:39.819Z,98804.03
2022-09-15T15:50:14.239Z,98807.06
2022-09-15T15:52:43.738Z,98806.09
2022-09-15T15:55:18.943Z,98800.31
2022-09-15T15:57:52.838Z,98802.75
2022-09-15T16:00:33.903Z,98803.09
2022-09-15T16:03:01.383Z,98796.66
2022-09-15T16:05:30.288Z,98800.66
2022-09-15T16:08:05.504Z,98799.25
2022-09-15T16:10:43.543Z,98798.75
2022-09-15T16:13:16.269Z,98792.38
2022-09-15T16:15:44.959Z,98792.84
2022-09-15T16:18:14.030Z,98789.63
2022-09-15T16:20:43.309Z,98797.06
2022-09-15T16:23:17.421Z,98794.41
2022-09-15T16:26:03.507Z,98800.47
2022-09-15T16:28:31.685Z,98790.38
2022-09-15T16:30:59.722Z,98796.41
2022-09-15T16:33:27.287Z,98797.84
2022-09-15T16:36:03.882Z,98801.16
2022-09-15T16:38:31.645Z,98792.09
2022-09-15T16:40:59.507Z,98791.53
2022-09-15T16:43:27.303Z,98790.13
2022-09-15T16:45:55.224Z,98798.34
2022-09-15T16:48:22.884Z,98795.25
2022-09-15T16:53:39.907Z,98787.72
2022-09-15T16:56:11.241Z,98788.25
2022-09-15T16:58:39.969Z,98787.56
2022-09-15T17:01:11.789Z,98800.34
2022-09-15T17:03:39.963Z,98800.69
2022-09-15T17:06:14.995Z,98800.91
2022-09-15T17:08:43.781Z,98796.78
2022-09-15T17:11:19.581Z,98799.06
2022-09-15T17:13:47.330Z,98799.06
2022-09-15T17:16:19.500Z,98795.00
2022-09-15T17:18:50.286Z,98797.47
2022-09-15T17:21:20.037Z,98803.97
2022-09-15T17:23:50.077Z,98803.13
2022-09-15T17:26:31.048Z,98803.13
2022-09-15T17:29:02.927Z,98804.47
2022-09-15T17:31:31.304Z,98792.31
2022-09-15T17:33:59.239Z,98796.22
2022-09-15T17:36:27.881Z,98792.63
2022-09-15T17:38:56.007Z,98799.19
2022-09-15T17:41:24.789Z,98793.78
2022-09-15T17:43:52.356Z,98790.16
2022-09-15T17:46:20.088Z,98795.53
2022-09-15T17:48:50.250Z,98795.53
2022-09-15T17:51:18.398Z,98797.47
2022-09-15T17:53:47.287Z,98802.34
2022-09-15T17:56:15.100Z,98800.66
2022-09-15T17:58:43.245Z,98800.16
2022-09-15T18:01:14.177Z,98801.75
2022-09-15T18:03:44.409Z,98801.47
2022-09-15T18:06:12.541Z,98812.25
2022-09-15T18:08:41.290Z,98817.56
2022-09-15T18:11:11.303Z,98827.19
2022-09-15T18:13:38.738Z,98821.25
2022-09-15T18:16:12.751Z,98828.16
2022-09-15T18:18:43.239Z,98829.22
2022-09-15T18:21:25.723Z,98832.34
2022-09-15T18:23:53.570Z,98838.50
2022-09-15T18:26:24.032Z,98846.00
2022-09-15T18:28:57.008Z,98846.97
2022-09-15T18:31:24.609Z,98832.91
2022-09-15T18:33:52.295Z,98838.19
2022-09-15T18:36:19.884Z,98840.34
2022-09-15T18:38:47.668Z,98846.44
2022-09-15T18:41:15.179Z,98841.81
2022-09-15T18:43:43.791Z,98842.53
2022-09-15T18:46:11.482Z,98841.66
2022-09-15T18:48:39.860Z,98840.50
2022-09-15T18:51:16.278Z,98844.53
2022-09-15T18:53:49.739Z,98826.94
2022-09-15T18:56:22.125Z,98828.22
2022-09-15T18:58:54.729Z,98820.59
2022-09-15T19:01:22.672Z,98818.16
2022-09-15T19:03:50.307Z,98815.59
2022-09-15T19:06:17.864Z,98812.34
2022-09-15T19:08:46.465Z,98807.94
2022-09-15T19:11:14.051Z,98807.41
2022-09-15T19:13:41.585Z,98822.81
2022-09-15T19:16:09.814Z,98812.66
2022-09-15T19:18:39.015Z,98824.13
2022-09-15T19:21:12.167Z,98817.69
2022-09-15T19:23:39.953Z,98820.56
2022-09-15T19:26:13.791Z,98827.00
2022-09-15T19:28:46.154Z,98820.03
2022-09-15T19:31:14.292Z,98817.03
2022-09-15T19:33:42.578Z,98819.06
2022-09-15T19:36:27.507Z,98813.25
2022-09-15T19:38:56.326Z,98821.63
2022-09-15T19:41:25.057Z,98814.53
2022-09-15T19:43:52.820Z,98813.03
2022-09-15T19:46:24.322Z,98817.34
2022-09-15T19:48:53.587Z,98817.81
2022-09-15T19:51:23.100Z,98815.38
2022-09-15T19:53:55.771Z,98820.59
2022-09-15T19:56:28.539Z,98811.78
2022-09-15T19:58:58.221Z,98806.81
2022-09-15T20:01:29.277Z,98809.38
2022-09-15T20:03:58.207Z,98806.34
2022-09-15T20:06:31.566Z,98808.22
2022-09-15T20:09:00.096Z,98804.66
2022-09-15T20:11:29.640Z,98803.19
2022-09-15T20:13:57.797Z,98790.03
2022-09-15T20:16:26.173Z,98795.25
2022-09-15T20:18:57.056Z,98805.72
2022-09-15T20:21:49.155Z,98810.91
2022-09-15T20:24:19.850Z,98808.53
2022-09-15T20:26:48.477Z,98804.66
2022-09-15T20:29:16.387Z,98813.81
2022-09-15T20:31:43.854Z,98804.66
2022-09-15T20:34:11.402Z,98801.97
2022-09-15T20:36:40.380Z,98812.88
2022-09-15T20:39:14.968Z,98811.84
2022-09-15T20:41:47.166Z,98811.25
2022-09-15T20:44:15.646Z,98803.94
2022-09-15T20:46:46.209Z,98811.78
2022-09-15T20:49:13.775Z,98813.31
2022-09-15T20:51:42.491Z,98802.72
2022-09-15T20:54:10.945Z,98805.88
2022-09-15T20:56:38.495Z,98805.94
2022-09-15T20:59:10.253Z,98807.00
2022-09-15T21:01:39.302Z,98799.44
2022-09-15T21:04:08.954Z,98812.63
2022-09-15T21:06:37.696Z,98817.34
2022-09-15T21:09:06.281Z,98820.13
2022-09-15T21:11:34.208Z,98810.25
2022-09-15T21:14:01.923Z,98801.59
2022-09-15T21:16:29.772Z,98802.06
2022-09-15T21:18:59.220Z,98800.66
2022-09-15T21:21:30.232Z,98809.91
2022-09-15T21:24:06.120Z,98813.81
2022-09-15T21:27:00.408Z,98817.59
2022-09-15T21:29:31.577Z,98814.22
2022-09-15T21:31:59.106Z,98809.94
2022-09-15T21:34:27.164Z,98810.09
2022-09-15T21:36:54.725Z,98805.81
2022-09-15T21:39:22.121Z,98806.03
2022-09-15T21:41:50.154Z,98802.63
2022-09-15T21:44:17.715Z,98807.16
2022-09-15T21:46:46.971Z,98814.56
2022-09-15T21:49:14.735Z,98813.84
2022-09-15T21:51:42.188Z,98813.56
2022-09-15T21:54:10.131Z,98810.94
2022-09-15T21:56:37.768Z,98805.53
2022-09-15T21:59:05.454Z,98807.34
2022-09-15T22:01:33.913Z,98810.59
2022-09-15T22:04:06.892Z,98807.22
2022-09-15T22:06:40.360Z,98809.59
2022-09-15T22:09:16.784Z,98809.03
2022-09-15T22:11:45.228Z,98795.97
2022-09-15T22:14:13.277Z,98803.81
2022-09-15T22:16:42.604Z,98804.69
2022-09-15T22:19:13.669Z,98805.84
2022-09-15T22:21:42.543Z,98809.38
2022-09-15T22:24:13.387Z,98807.16
2022-09-15T22:26:42.594Z,98821.84
2022-09-15T22:29:13.108Z,98808.19
2022-09-15T22:31:42.164Z,98805.91
2022-09-15T22:34:09.908Z,98814.91
2022-09-15T22:36:37.399Z,98817.78
2022-09-15T22:39:06.064Z,98827.41
2022-09-15T22:41:37.764Z,98829.63
2022-09-15T22:44:07.364Z,98835.31
2022-09-15T22:46:35.683Z,98831.69
2022-09-15T22:49:03.452Z,98838.41
2022-09-15T22:51:30.870Z,98830.84
2022-09-15T22:53:58.528Z,98844.19
2022-09-15T22:56:27.011Z,98841.53
2022-09-15T22:58:56.254Z,98846.19
2022-09-15T23:01:27.992Z,98837.13
2022-09-15T23:04:01.602Z,98837.38
2022-09-15T23:06:32.885Z,98837.38
2022-09-15T23:09:07.220Z,98831.16
2022-09-15T23:11:37.419Z,98833.94
2022-09-15T23:14:05.915Z,98829.13
2022-09-15T23:16:33.684Z,98826.13
2022-09-15T23:19:05.233Z,98826.88
2022-09-15T23:21:32.666Z,98828.41
2022-09-15T23:24:00.385Z,98828.78
2022-09-15T23:26:28.148Z,98816.19
2022-09-15T23:28:55.911Z,98815.75
2022-09-15T23:31:23.537Z,98824.56
2022-09-15T23:33:51.016Z,98820.66
2022-09-15T23:36:19.892Z,98818.91
2022-09-15T23:38:49.087Z,98819.47
2022-09-15T23:41:18.504Z,98818.09
2022-09-15T23:43:46.514Z,98816.59
2022-09-15T23:46:14.399Z,98820.81
2022-09-15T23:48:42.203Z,98824.94
2022-09-15T23:51:10.614Z,98825.00
2022-09-15T23:53:38.174Z,98818.22
2022-09-15T23:56:06.255Z,98823.63
2022-09-15T23:58:33.736Z,98814.56
